Time;durP1;ratioP1;P1;durP2;ratioP2;P2;SDS_P1;SDS_P2;PMS_P1;PMS_P2;Temp;Humidity;BMP_temperature;BMP_pressure;BME280_temperature;BME280_humidity;BME280_pressure;Samples;Min_cycle;Max_cycle;Signal;HPM_P1;HPM_P2
2021/05/27 00:02:11;;;;;;;4.67;2.15;;;;;;;10.32;72.01;100082.45;1730914;82;21047;-70
2021/05/27 00:04:37;;;;;;;2.83;1.60;;;;;;;10.30;72.11;100076.48;1713842;83;20886;-69
2021/05/27 00:07:03;;;;;;;4.75;2.17;;;;;;;10.29;72.21;100081.47;1702189;84;21619;-70
2021/05/27 00:09:29;;;;;;;4.15;1.80;;;;;;;10.28;72.33;100074.47;1732826;82;21017;-70
2021/05/27 00:11:55;;;;;;;3.60;2.00;;;;;;;10.25;72.44;100070.83;1732742;82;21051;-70
2021/05/27 00:14:21;;;;;;;4.20;1.40;;;;;;;10.24;72.55;100073.69;1702121;84;21029;-70
2021/05/27 00:16:48;;;;;;;3.08;1.90;;;;;;;10.22;72.67;100073.84;1733177;81;21004;-70
2021/05/27 00:19:14;;;;;;;2.25;1.72;;;;;;;10.22;72.77;100079.18;1732822;82;21028;-70
2021/05/27 00:21:40;;;;;;;2.80;1.62;;;;;;;10.23;72.87;100080.84;1702057;84;21620;-70
2021/05/27 00:24:07;;;;;;;3.42;1.82;;;;;;;10.24;72.96;100079.82;1732856;82;20909;-70
2021/05/27 00:26:33;;;;;;;6.10;2.67;;;;;;;10.23;73.06;100085.34;1732702;82;21591;-70
2021/05/27 00:28:59;;;;;;;4.83;2.25;;;;;;;10.21;73.14;100084.17;1702254;84;21128;-70
2021/05/27 00:31:25;;;;;;;7.70;3.05;;;;;;;10.21;73.27;100086.84;1732807;82;21084;-70
2021/05/27 00:33:51;;;;;;;4.53;2.12;;;;;;;10.20;73.36;100087.03;1732873;82;21143;-70
2021/05/27 00:36:17;;;;;;;6.97;2.70;;;;;;;10.19;73.48;100092.86;1703158;84;20921;-70
2021/05/27 00:38:43;;;;;;;5.25;2.00;;;;;;;10.19;73.57;100089.36;1732924;82;20921;-70
2021/05/27 00:41:09;;;;;;;3.45;1.85;;;;;;;10.19;73.67;100094.19;1695606;84;20949;-70
2021/05/27 00:43:35;;;;;;;3.55;1.40;;;;;;;10.18;73.78;100093.86;1671908;85;21722;-70
2021/05/27 00:46:01;;;;;;;2.33;1.52;;;;;;;10.17;73.88;100105.51;1672263;85;21014;-70
2021/05/27 00:51:11;;;;;;;2.83;1.77;;;;;;;10.14;74.12;100109.86;1657333;85;21066;-70
2021/05/27 00:53:37;;;;;;;4.65;1.87;;;;;;;10.14;74.20;100099.20;1673226;85;20917;-70
2021/05/27 00:56:04;;;;;;;2.95;1.30;;;;;;;10.16;74.30;100109.20;1660384;86;21197;-70
2021/05/27 00:58:30;;;;;;;3.92;1.50;;;;;;;10.15;74.38;100118.19;1657365;86;21088;-70
2021/05/27 01:00:56;;;;;;;5.47;1.67;;;;;;;10.16;74.45;100118.53;1673115;85;21141;-70
2021/05/27 01:03:22;;;;;;;5.30;1.80;;;;;;;10.16;74.52;100121.69;1673990;84;21063;-70
2021/05/27 01:05:48;;;;;;;2.45;1.40;;;;;;;10.16;74.59;100119.02;1732336;82;20918;-70
2021/05/27 01:08:15;;;;;;;2.20;1.27;;;;;;;10.14;74.66;100122.31;1702033;84;20874;-71
2021/05/27 01:10:41;;;;;;;2.33;1.60;;;;;;;10.13;74.74;100120.18;1732881;82;21126;-71
2021/05/27 01:13:07;;;;;;;2.75;1.70;;;;;;;10.13;74.86;100118.84;1702305;84;21624;-71
2021/05/27 01:15:35;;;;;;;2.72;1.50;;;;;;;10.14;74.92;100128.98;1732105;82;20898;-70
2021/05/27 01:18:12;;;;;;;4.00;1.80;;;;;;;10.11;74.99;100127.50;1732734;82;21064;-70
2021/05/27 01:20:40;;;;;;;3.12;1.60;;;;;;;10.09;75.06;100122.86;1702174;84;21053;-70
2021/05/27 01:23:06;;;;;;;3.25;1.35;;;;;;;10.08;75.11;100129.68;1732812;82;21557;-70
2021/05/27 01:25:32;;;;;;;2.10;1.35;;;;;;;10.08;75.17;100132.34;1702152;84;21556;-70
2021/05/27 01:27:58;;;;;;;1.52;1.10;;;;;;;10.04;75.23;100129.20;1733017;82;21064;-70
2021/05/27 01:30:25;;;;;;;3.92;1.35;;;;;;;10.02;75.29;100140.04;1732977;82;21025;-70
2021/05/27 01:32:51;;;;;;;4.90;2.22;;;;;;;10.01;75.35;100137.53;1702072;84;21065;-70
2021/05/27 01:35:20;;;;;;;3.47;1.52;;;;;;;9.96;75.41;100140.70;1733096;82;21122;-70
2021/05/27 01:37:46;;;;;;;1.82;1.17;;;;;;;9.93;75.45;100145.55;1733215;82;21025;-70
2021/05/27 01:40:18;;;;;;;3.58;1.57;;;;;;;9.85;75.49;100143.73;1702199;84;21072;-70
2021/05/27 01:42:44;;;;;;;1.50;1.00;;;;;;;9.79;75.56;100140.94;1733114;82;21068;-70
2021/05/27 01:45:11;;;;;;;3.05;1.80;;;;;;;9.74;75.60;100144.63;1732872;82;20944;-70
2021/05/27 01:47:37;;;;;;;2.87;1.37;;;;;;;9.69;75.65;100150.95;1702246;83;21093;-70
2021/05/27 01:50:05;;;;;;;2.62;1.40;;;;;;;9.64;75.70;100149.31;1733031;82;20925;-70
2021/05/27 01:52:31;;;;;;;3.30;1.50;;;;;;;9.59;75.75;100146.31;1732962;82;21028;-70
2021/05/27 01:54:57;;;;;;;3.12;1.87;;;;;;;9.58;75.78;100153.97;1702270;84;20953;-70
2021/05/27 01:57:24;;;;;;;6.03;2.15;;;;;;;9.59;75.84;100158.30;1733019;82;20862;-70
2021/05/27 01:59:50;;;;;;;4.80;2.22;;;;;;;9.59;75.89;100166.28;1732997;82;22090;-70
2021/05/27 02:02:16;;;;;;;2.90;2.15;;;;;;;9.64;75.93;100166.63;1702255;84;21080;-70
2021/05/27 02:04:42;;;;;;;4.55;1.80;;;;;;;9.67;75.96;100168.94;1705760;82;20921;-70
2021/05/27 02:07:13;;;;;;;3.27;1.70;;;;;;;9.69;76.02;100169.09;1673072;83;20910;-70
2021/05/27 02:09:39;;;;;;;2.35;1.70;;;;;;;9.71;76.08;100167.61;1710420;82;21038;-70
2021/05/27 02:12:06;;;;;;;4.45;1.37;;;;;;;9.71;76.13;100166.27;1748205;82;21662;-70
2021/05/27 02:14:32;;;;;;;2.08;1.50;;;;;;;9.69;76.17;100172.25;1726741;83;21104;-70
2021/05/27 02:16:58;;;;;;;4.80;2.55;;;;;;;9.65;76.21;100172.25;1720021;82;23007;-70
2021/05/27 02:19:24;;;;;;;2.60;1.55;;;;;;;9.60;76.29;100175.95;1715271;83;21079;-70
2021/05/27 02:21:50;;;;;;;2.50;1.20;;;;;;;9.53;76.32;100185.91;1710376;83;21534;-70
2021/05/27 02:24:17;;;;;;;3.47;1.60;;;;;;;9.46;76.36;100178.27;1726710;82;21120;-70
2021/05/27 02:26:42;;;;;;;2.65;1.60;;;;;;;9.42;76.42;100186.78;1726598;83;20980;-70
2021/05/27 02:29:08;;;;;;;2.87;1.40;;;;;;;9.36;76.44;100192.75;1726509;83;21000;-69
2021/05/27 02:31:34;;;;;;;2.05;1.55;;;;;;;9.33;76.52;100191.27;1726806;83;20983;-70
2021/05/27 02:34:00;;;;;;;2.33;1.60;;;;;;;9.22;76.57;100189.45;1725936;83;21012;-70
2021/05/27 02:36:27;;;;;;;3.10;1.67;;;;;;;9.22;76.57;100189.45;1697754;84;21234;-70
2021/05/27 02:38:53;;;;;;;2.95;1.10;;;;;;;9.19;76.62;100195.92;1697072;84;21092;-70
2021/05/27 02:41:20;;;;;;;1.62;1.27;;;;;;;9.13;76.64;100188.61;1697634;84;21623;-70
2021/05/27 02:43:46;;;;;;;3.67;1.37;;;;;;;9.08;76.70;100188.78;1697602;84;21529;-70
2021/05/27 02:46:12;;;;;;;1.92;1.45;;;;;;;9.04;76.71;100190.94;1697618;84;20920;-70
2021/05/27 02:48:38;;;;;;;1.62;1.40;;;;;;;9.01;76.74;100193.91;1697521;84;20960;-70
2021/05/27 02:51:04;;;;;;;1.75;1.12;;;;;;;8.97;76.76;100193.41;1697336;84;20937;-70
2021/05/27 02:53:31;;;;;;;2.22;1.30;;;;;;;8.93;76.78;100196.58;1697686;84;21587;-70
2021/05/27 02:55:57;;;;;;;2.62;1.55;;;;;;;8.87;76.83;100196.72;1697227;84;20898;-70
2021/05/27 02:58:23;;;;;;;2.22;1.52;;;;;;;8.84;76.87;100190.89;1697800;84;21027;-70
2021/05/27 03:00:49;;;;;;;3.08;1.50;;;;;;;8.81;76.92;100195.22;1696945;84;21078;-70
2021/05/27 03:03:21;;;;;;;2.77;1.77;;;;;;;8.79;76.96;100202.53;1697518;84;20972;-70
2021/05/27 03:05:45;;;;;;;2.83;1.82;;;;;;;8.76;76.95;100197.55;1697502;83;21084;-70
2021/05/27 03:08:11;;;;;;;4.42;2.02;;;;;;;8.74;76.99;100199.52;1669780;84;22503;-70
2021/05/27 03:10:37;;;;;;;3.33;2.05;;;;;;;8.72;77.03;100200.20;1666991;84;21049;-70
2021/05/27 03:13:04;;;;;;;3.30;1.70;;;;;;;8.71;77.05;100206.50;1693213;84;21668;-70
2021/05/27 03:15:30;;;;;;;3.65;1.55;;;;;;;8.70;77.08;100211.47;1693290;84;21488;-70
2021/05/27 03:18:01;;;;;;;2.65;1.62;;;;;;;8.70;77.20;100215.45;1693085;84;21033;-70
2021/05/27 03:20:27;;;;;;;2.20;1.67;;;;;;;8.73;77.13;100232.41;1693217;84;21073;-70
2021/05/27 03:22:53;;;;;;;3.80;1.65;;;;;;;8.71;77.14;100221.12;1693524;84;21044;-70
2021/05/27 03:25:19;;;;;;;4.35;1.40;;;;;;;8.71;77.17;100225.11;1693106;84;21400;-70
2021/05/27 03:27:46;;;;;;;2.35;2.00;;;;;;;8.69;77.18;100223.92;1693449;84;21079;-70
2021/05/27 03:30:13;;;;;;;3.83;2.30;;;;;;;8.76;77.28;100230.78;1693142;84;21051;-70
2021/05/27 03:32:40;;;;;;;3.10;1.82;;;;;;;9.31;77.70;100225.20;1693443;84;21120;-70
2021/05/27 03:35:10;;;;;;;4.65;1.87;;;;;;;10.11;77.71;100231.91;1693141;84;21119;-71
2021/05/27 03:37:36;;;;;;;4.83;1.42;;;;;;;10.70;77.50;100229.20;1693346;84;21108;-71
2021/05/27 03:40:16;;;;;;;3.02;1.70;;;;;;;11.28;77.16;100232.67;1693264;84;21575;-71
2021/05/27 03:42:49;;;;;;;6.08;2.47;;;;;;;11.76;76.86;100230.11;1691994;84;21068;-71
2021/05/27 03:45:18;;;;;;;6.70;3.00;;;;;;;12.29;76.53;100232.55;1693461;84;21164;-71
2021/05/27 03:47:44;;;;;;;3.47;2.22;;;;;;;12.85;76.07;100234.17;1693116;84;21053;-71
2021/05/27 03:50:11;;;;;;;1.50;1.10;;;;;;;13.24;75.67;100235.98;1692277;84;21665;-71
2021/05/27 03:52:38;;;;;;;3.98;1.65;;;;;;;13.59;75.07;100225.36;1691296;84;21617;-71
2021/05/27 03:55:08;;;;;;;2.58;1.55;;;;;;;13.92;74.75;100235.84;1691799;84;21084;-71
2021/05/27 03:57:34;;;;;;;3.98;1.98;;;;;;;14.29;74.26;100237.30;1691801;84;21105;-71
2021/05/27 04:02:46;;;;;;;4.97;2.42;;;;;;;14.35;72.72;100244.11;1691838;84;21475;-71
2021/05/27 04:07:57;;;;;;;2.65;1.82;;;;;;;14.78;71.46;100254.09;1693252;83;22207;-71
2021/05/27 04:10:23;;;;;;;3.30;1.95;;;;;;;15.12;70.75;100248.33;1695927;84;20918;-71
2021/05/27 04:12:50;;;;;;;2.33;1.80;;;;;;;15.16;69.93;100253.10;1720913;83;21684;-71
2021/05/27 04:15:22;;;;;;;3.75;1.67;;;;;;;14.99;69.13;100251.78;1722219;83;21689;-71
2021/05/27 04:18:05;;;;;;;3.75;1.95;;;;;;;14.93;68.70;100259.31;1721053;83;21073;-71
2021/05/27 04:20:38;;;;;;;2.10;1.60;;;;;;;15.14;68.02;100251.11;1720056;83;21079;-71
2021/05/27 04:23:07;;;;;;;2.58;1.90;;;;;;;15.27;67.39;100257.05;1722092;83;21593;-71
2021/05/27 04:25:33;;;;;;;4.75;1.60;;;;;;;15.20;66.82;100243.58;1722066;83;21042;-71
2021/05/27 04:27:59;;;;;;;3.87;1.70;;;;;;;15.33;66.44;100248.16;1722306;83;21755;-71
2021/05/27 04:30:27;;;;;;;2.62;1.90;;;;;;;15.35;65.55;100246.09;1742947;82;21036;-71
2021/05/27 04:33:03;;;;;;;12.00;2.15;;;;;;;15.15;64.53;100254.13;1719037;83;21054;-71
2021/05/27 04:35:37;;;;;;;3.65;1.98;;;;;;;14.72;64.37;100256.24;1742881;80;21032;-71
2021/05/27 04:38:09;;;;;;;2.37;1.72;;;;;;;14.26;64.74;100250.61;1743235;82;21515;-71
2021/05/27 04:40:36;;;;;;;4.30;1.82;;;;;;;13.79;65.05;100258.53;1744119;81;21669;-71
2021/05/27 04:43:02;;;;;;;2.70;1.80;;;;;;;13.67;65.33;100257.39;1744262;82;21704;-72
2021/05/27 04:45:28;;;;;;;4.47;2.20;;;;;;;13.61;65.47;100268.89;1744463;82;21106;-71
2021/05/27 04:47:54;;;;;;;4.12;2.35;;;;;;;13.55;65.53;100264.27;1744256;81;20950;-71
2021/05/27 04:50:21;;;;;;;4.25;2.45;;;;;;;13.51;65.60;100271.88;1744506;82;21046;-71
2021/05/27 04:52:49;;;;;;;4.35;2.00;;;;;;;13.69;65.58;100267.39;1744425;81;21015;-71
2021/05/27 04:55:16;;;;;;;4.00;2.45;;;;;;;13.71;65.56;100270.73;1736823;82;21141;-71
2021/05/27 04:57:42;;;;;;;3.05;2.65;;;;;;;13.80;65.49;100273.57;1679571;84;21178;-71
2021/05/27 05:00:15;;;;;;;4.00;2.33;;;;;;;13.64;65.26;100280.56;1684973;84;21579;-71
2021/05/27 05:02:41;;;;;;;2.80;2.37;;;;;;;13.65;65.28;100273.65;1693825;84;21631;-72
2021/05/27 05:05:08;;;;;;;5.78;2.50;;;;;;;13.74;65.21;100273.02;1710462;83;21090;-72
2021/05/27 05:07:35;;;;;;;4.33;2.17;;;;;;;13.80;65.17;100275.75;1710152;81;21567;-72
2021/05/27 05:10:01;;;;;;;4.60;2.50;;;;;;;13.83;65.08;100278.55;1696004;83;21087;-71
2021/05/27 05:12:27;;;;;;;5.70;2.25;;;;;;;13.81;64.87;100288.14;1717179;83;21079;-71
2021/05/27 05:14:53;;;;;;;3.30;2.20;;;;;;;13.83;64.76;100283.91;1723212;83;20854;-71
2021/05/27 05:17:19;;;;;;;3.45;2.08;;;;;;;13.80;64.66;100295.02;1720081;82;21245;-71
2021/05/27 05:19:45;;;;;;;4.37;2.77;;;;;;;13.92;64.57;100293.48;1699294;82;21574;-71
2021/05/27 05:22:11;;;;;;;4.87;2.60;;;;;;;14.11;64.44;100302.17;1710847;83;20928;-71
2021/05/27 05:24:37;;;;;;;4.53;2.87;;;;;;;14.29;64.28;100303.86;1684448;85;21083;-71
2021/05/27 05:27:04;;;;;;;3.90;1.87;;;;;;;14.54;64.24;100301.56;1684415;85;20936;-71
2021/05/27 05:29:30;;;;;;;2.35;2.15;;;;;;;14.60;64.02;100305.33;1694951;83;21144;-71
2021/05/27 05:31:56;;;;;;;5.60;1.98;;;;;;;14.46;63.86;100306.58;1711928;83;21618;-72
2021/05/27 05:34:25;;;;;;;2.90;2.10;;;;;;;14.55;63.69;100302.41;1701540;83;21091;-71
2021/05/27 05:36:51;;;;;;;3.95;2.20;;;;;;;14.46;63.54;100303.89;1684546;85;20897;-71
2021/05/27 05:39:17;;;;;;;3.15;2.10;;;;;;;14.48;63.39;100315.28;1699540;83;20923;-71
2021/05/27 05:41:43;;;;;;;4.20;2.30;;;;;;;14.60;63.27;100317.41;1714746;82;21637;-72
2021/05/27 05:44:09;;;;;;;3.62;2.37;;;;;;;14.84;63.17;100317.75;1714545;83;20924;-72
2021/05/27 05:46:35;;;;;;;6.78;3.20;;;;;;;14.87;62.90;100320.54;1714776;83;20944;-72
2021/05/27 05:49:01;;;;;;;6.87;2.72;;;;;;;14.83;62.79;100323.30;1709923;83;21602;-72
2021/05/27 05:51:27;;;;;;;5.08;2.83;;;;;;;14.86;62.64;100324.25;1714820;83;21063;-71
2021/05/27 05:53:54;;;;;;;3.47;2.45;;;;;;;14.87;62.42;100317.86;1714602;83;21221;-71
2021/05/27 05:56:20;;;;;;;3.85;2.42;;;;;;;15.00;62.27;100325.96;1714618;83;21096;-71
2021/05/27 05:58:46;;;;;;;4.53;2.47;;;;;;;15.01;62.06;100320.91;1714769;82;21027;-71
2021/05/27 06:01:13;;;;;;;4.37;2.98;;;;;;;15.05;61.96;100322.69;1693286;83;20952;-71
2021/05/27 06:03:39;;;;;;;5.55;3.08;;;;;;;15.05;61.80;100319.48;1715358;82;21064;-71
2021/05/27 06:06:05;;;;;;;5.67;2.92;;;;;;;15.17;61.73;100324.58;1732027;81;21245;-71
2021/05/27 06:08:31;;;;;;;5.50;2.42;;;;;;;15.33;61.52;100326.92;1713282;83;21639;-71
2021/05/27 06:10:57;;;;;;;4.83;2.52;;;;;;;15.17;61.20;100327.27;1717511;83;20985;-71
2021/05/27 06:13:23;;;;;;;5.58;2.83;;;;;;;15.10;61.00;100317.02;1693539;82;20912;-71
2021/05/27 06:15:49;;;;;;;3.00;2.42;;;;;;;14.87;60.85;100324.56;1702880;82;20928;-71
2021/05/27 06:18:16;;;;;;;5.12;2.67;;;;;;;14.92;60.77;100324.78;1695863;84;21199;-72
2021/05/27 06:20:42;;;;;;;4.90;3.45;;;;;;;14.87;60.68;100324.56;1703753;82;21034;-72
2021/05/27 06:23:08;;;;;;;4.42;2.70;;;;;;;14.91;60.60;100328.01;1734292;81;20867;-72
2021/05/27 06:25:34;;;;;;;3.77;2.47;;;;;;;15.22;60.53;100323.98;1713267;83;20926;-72
2021/05/27 06:27:59;;;;;;;3.67;2.42;;;;;;;15.29;60.43;100323.49;1678569;83;20989;-72
2021/05/27 06:30:28;;;;;;;5.28;2.37;;;;;;;15.49;60.38;100327.91;1674203;85;21695;-72
2021/05/27 06:32:53;;;;;;;5.47;3.83;;;;;;;15.58;60.13;100328.56;1674044;84;21565;-72
2021/05/27 06:35:18;;;;;;;16.57;9.43;;;;;;;15.27;59.84;100327.70;1674212;85;21663;-72
2021/05/27 06:37:44;;;;;;;13.40;7.60;;;;;;;15.01;59.66;100331.66;1667216;85;20859;-71
2021/05/27 06:40:14;;;;;;;12.78;6.97;;;;;;;14.94;59.62;100334.83;1675666;85;20907;-71
2021/05/27 06:42:39;;;;;;;;;;;;;;;14.82;59.54;100336.41;1708285;83;21141;-72
2021/05/27 06:45:06;;;;;;;13.83;5.15;;;;;;;14.65;59.62;100333.23;1699903;83;20194;-71
2021/05/27 06:47:32;;;;;;;6.80;4.92;;;;;;;14.62;59.71;100331.45;1662456;85;21077;-71
2021/05/27 06:49:58;;;;;;;4.85;3.42;;;;;;;14.67;59.63;100334.38;1680382;85;21028;-71
2021/05/27 06:52:23;;;;;;;5.10;3.20;;;;;;;14.78;59.61;100333.29;1687402;83;21028;-71
2021/05/27 06:54:51;;;;;;;4.35;3.02;;;;;;;14.58;59.58;100348.46;1682784;84;21623;-71
2021/05/27 06:57:17;;;;;;;5.42;2.40;;;;;;;14.69;59.72;100351.94;1670322;85;21100;-71
2021/05/27 06:59:42;;;;;;;6.05;2.40;;;;;;;14.73;59.67;100348.34;1692893;83;20948;-71
2021/05/27 07:02:08;;;;;;;4.00;2.20;;;;;;;14.57;59.52;100351.33;1698095;83;20865;-71
2021/05/27 07:04:34;;;;;;;5.30;2.10;;;;;;;14.25;59.42;100350.07;1696535;84;20889;-71
2021/05/27 07:06:59;;;;;;;8.35;3.15;;;;;;;14.17;59.53;100353.72;1683841;83;20894;-71
2021/05/27 07:09:25;;;;;;;3.70;2.45;;;;;;;14.18;59.58;100353.21;1697230;84;20876;-71
2021/05/27 07:11:51;;;;;;;5.10;2.58;;;;;;;14.32;59.64;100358.45;1644928;86;20903;-71
2021/05/27 07:14:17;;;;;;;3.37;2.80;;;;;;;14.52;59.69;100353.79;1675981;84;21485;-71
2021/05/27 07:16:44;;;;;;;3.42;2.50;;;;;;;14.53;59.65;100359.48;1674660;84;22059;-71
2021/05/27 07:19:10;;;;;;;2.77;2.30;;;;;;;14.46;59.67;100360.24;1673387;85;21109;-71
2021/05/27 07:21:35;;;;;;;5.72;2.85;;;;;;;14.42;59.63;100365.71;1697427;84;20998;-71
2021/05/27 07:24:01;;;;;;;10.82;4.60;;;;;;;14.35;59.69;100370.70;1697140;83;20986;-71
2021/05/27 07:26:27;;;;;;;5.58;3.92;;;;;;;14.29;59.70;100358.85;1696515;83;21595;-71
2021/05/27 07:28:53;;;;;;;3.15;2.40;;;;;;;14.22;59.74;100374.06;1693847;83;20918;-71
2021/05/27 07:31:19;;;;;;;4.03;2.72;;;;;;;14.04;59.63;100367.00;1696549;83;20914;-71
2021/05/27 07:33:44;;;;;;;4.17;2.40;;;;;;;13.84;59.69;100374.03;1659028;85;20937;-71
2021/05/27 07:36:10;;;;;;;8.75;2.77;;;;;;;13.82;59.75;100377.43;1694055;84;20957;-71
2021/05/27 07:38:36;;;;;;;7.60;2.87;;;;;;;13.74;59.81;100378.88;1695082;84;21583;-70
2021/05/27 07:41:01;;;;;;;4.65;2.47;;;;;;;13.72;59.83;100376.92;1694557;84;20994;-71
2021/05/27 07:43:27;;;;;;;4.15;2.30;;;;;;;13.72;59.90;100379.06;1687715;83;20984;-71
2021/05/27 07:45:53;;;;;;;7.33;2.83;;;;;;;13.72;60.04;100378.26;1692836;83;21056;-71
2021/05/27 07:48:19;;;;;;;8.05;3.00;;;;;;;13.66;60.11;100387.03;1699695;83;22120;-70
2021/05/27 07:50:44;;;;;;;4.12;1.92;;;;;;;13.63;60.25;100387.42;1694807;84;20899;-71
2021/05/27 07:53:15;;;;;;;4.50;2.20;;;;;;;13.56;60.32;100393.22;1694850;84;21009;-71
2021/05/27 07:55:39;;;;;;;3.25;2.02;;;;;;;13.62;60.42;100391.11;1695502;83;21101;-71
2021/05/27 07:58:05;;;;;;;4.72;2.52;;;;;;;13.69;60.48;100391.51;1695165;84;21597;-71
2021/05/27 08:00:31;;;;;;;4.03;2.70;;;;;;;13.78;60.58;100393.57;1695249;84;20982;-71
2021/05/27 08:02:57;;;;;;;3.92;1.98;;;;;;;13.85;60.61;100391.78;1694795;84;21053;-71
2021/05/27 08:05:23;;;;;;;2.95;2.10;;;;;;;13.80;60.57;100391.52;1695001;83;20927;-71
2021/05/27 08:07:49;;;;;;;5.40;2.40;;;;;;;13.66;60.64;100394.57;1694769;83;21175;-71
2021/05/27 08:10:15;;;;;;;3.02;2.17;;;;;;;13.61;60.70;100396.17;1698242;83;21121;-71
2021/05/27 08:12:42;;;;;;;3.77;2.05;;;;;;;13.63;60.74;100398.98;1699074;84;20878;-71
2021/05/27 08:15:08;;;;;;;5.45;2.02;;;;;;;13.75;60.77;100396.64;1704851;84;21091;-71
2021/05/27 08:17:34;;;;;;;2.80;2.50;;;;;;;13.83;60.73;100399.17;1708413;84;21061;-71
2021/05/27 08:20:00;;;;;;;2.87;2.25;;;;;;;13.80;60.71;100403.08;1708121;84;20969;-71
2021/05/27 08:22:30;;;;;;;2.45;1.92;;;;;;;13.77;60.70;100396.75;1713279;83;21041;-71
2021/05/27 08:24:56;;;;;;;5.78;2.52;;;;;;;13.76;60.66;100396.94;1713214;83;21041;-71
2021/05/27 08:27:22;;;;;;;3.10;1.90;;;;;;;13.85;60.72;100403.85;1713181;83;21033;-71
2021/05/27 08:29:48;;;;;;;4.42;2.20;;;;;;;13.96;60.73;100400.67;1713228;82;20938;-71
2021/05/27 08:32:15;;;;;;;5.90;4.08;;;;;;;13.91;60.65;100407.09;1713151;83;21253;-71
2021/05/27 08:34:41;;;;;;;8.05;3.72;;;;;;;13.79;60.64;100372.45;1726457;82;20897;-71
2021/05/27 08:37:07;;;;;;;5.92;4.08;;;;;;;13.96;60.63;100407.37;1744669;81;21604;-71
2021/05/27 08:39:33;;;;;;;5.40;3.08;;;;;;;13.96;60.66;100411.39;1741384;81;21041;-71
2021/05/27 08:42:00;;;;;;;3.52;1.82;;;;;;;14.04;60.64;100411.24;1709623;83;21625;-71
2021/05/27 08:44:26;;;;;;;1.87;1.50;;;;;;;14.55;60.42;100407.91;1714689;83;21074;-71
2021/05/27 08:46:52;;;;;;;5.10;3.12;;;;;;;14.55;60.42;100407.91;1715622;82;21588;-71
2021/05/27 08:49:18;;;;;;;4.15;2.72;;;;;;;14.67;60.26;100412.23;1738938;82;20882;-71
2021/05/27 08:51:45;;;;;;;5.85;3.52;;;;;;;14.81;60.17;100412.63;1744790;81;21029;-71
2021/05/27 08:54:11;;;;;;;7.05;3.60;;;;;;;14.95;60.00;100414.38;1731629;81;21554;-70
2021/05/27 08:56:37;;;;;;;3.60;2.65;;;;;;;14.97;59.92;100399.71;1709939;83;21179;-72
2021/05/27 08:59:03;;;;;;;3.98;2.02;;;;;;;15.15;59.87;100417.98;1725509;82;21055;-73
2021/05/27 09:01:29;;;;;;;4.40;2.00;;;;;;;15.06;59.75;100416.47;1711115;82;21582;-73
2021/05/27 09:03:55;;;;;;;2.67;2.37;;;;;;;14.99;59.68;100423.67;1714474;82;21042;-73
2021/05/27 09:06:22;;;;;;;29.27;14.00;;;;;;;14.86;59.54;100419.56;1714615;83;21002;-72
2021/05/27 09:08:49;;;;;;;12.43;7.15;;;;;;;14.93;59.52;100421.78;1714683;83;21077;-72
2021/05/27 09:11:18;;;;;;;8.70;4.62;;;;;;;15.26;59.51;100418.77;1730132;82;21096;-73
2021/05/27 09:14:00;;;;;;;8.33;4.27;;;;;;;15.62;59.34;100425.77;1735926;81;21048;-73
2021/05/27 09:16:23;;;;;;;3.15;2.37;;;;;;;15.88;59.14;100418.59;1743294;82;21025;-70
2021/05/27 09:18:49;;;;;;;3.72;2.10;;;;;;;15.94;58.87;100422.31;1744601;81;21465;-70
2021/05/27 09:21:16;;;;;;;7.62;2.33;;;;;;;16.11;58.64;100411.50;1743194;81;21206;-70
2021/05/27 09:23:50;;;;;;;4.15;1.80;;;;;;;16.50;58.52;100416.07;1744596;81;21076;-70
2021/05/27 09:26:17;;;;;;;3.72;2.02;;;;;;;16.77;58.33;100414.20;1735211;81;21047;-70
2021/05/27 09:28:44;;;;;;;6.78;1.90;;;;;;;16.95;58.23;100418.42;1719922;83;21040;-70
2021/05/27 09:31:14;;;;;;;4.65;2.40;;;;;;;17.01;57.92;100422.12;1722899;83;21627;-70
2021/05/27 09:33:48;;;;;;;3.67;2.30;;;;;;;16.89;57.60;100421.41;1718648;81;21700;-71
2021/05/27 09:36:16;;;;;;;3.20;2.20;;;;;;;16.61;57.40;100422.69;1692487;83;21083;-71
2021/05/27 09:38:50;;;;;;;3.75;2.60;;;;;;;16.48;56.95;100427.03;1736570;82;21116;-70
2021/05/27 09:41:29;;;;;;;4.65;1.82;;;;;;;16.41;56.62;100429.41;1736969;82;21687;-70
2021/05/27 09:43:58;;;;;;;2.27;1.70;;;;;;;16.36;56.50;100425.19;1743796;81;21050;-70
2021/05/27 09:46:24;;;;;;;11.33;5.08;;;;;;;16.18;56.39;100423.09;1744298;81;21095;-70
